Blidosund — SDKG — position and weather

sailwx.info

Track history (hours):
 
Tides and Currents Weather Stations Pressure Air Temp Water Temp Dewpoint Dewpoint Depression Visibility Wind Speed Wind Dir Waves Ship Positions

Blidosund

Last reported at 2016-Aug-31 03:33 UTC. Time now 2016-Aug-31 04:27 UTC.
Position N 59°20' E 018°05'.

Length 35 m; draft 3 m.

Type: Passenger vessel. MMSI: 265522680.

Date/timePositionNaut miles runAvg speedWind from/ knotsBaromVisibWave heightAir tempDewpointWater temp
2016-Aug-31 03:33N 59°20' E 018°05'0 0.0
2016-Aug-31 02:33N 59°20' E 018°05'0 0.0
2016-Aug-31 01:33N 59°20' E 018°05'0 0.0
2016-Aug-31 00:33N 59°20' E 018°05'0 0.0
2016-Aug-30 23:33N 59°20' E 018°05'0 0.0
2016-Aug-30 22:33N 59°20' E 018°05'0 0.0
2016-Aug-30 21:33N 59°20' E 018°05'0 0.0
2016-Aug-30 20:33N 59°20' E 018°05'3 3.2
2016-Aug-30 19:33N 59°20' E 018°11'6 5.8
2016-Aug-30 18:31N 59°23' E 018°20'4 3.8
2016-Aug-30 17:33N 59°21' E 018°15'5 5.4
2016-Aug-30 16:33N 59°20' E 018°05'0 0.0
2016-Aug-30 15:33N 59°20' E 018°05'0 0.0
2016-Aug-30 14:33N 59°20' E 018°05'0 0.0
2016-Aug-30 13:33N 59°20' E 018°05'0 0.0
2016-Aug-30 12:27N 59°20' E 018°05'0 0.0
2016-Aug-30 11:29N 59°20' E 018°05'0 0.0
2016-Aug-30 10:34N 59°20' E 018°05'0 0.0
2016-Aug-30 09:33N 59°20' E 018°05'0 0.0
2016-Aug-30 08:33N 59°20' E 018°05'0 0.0
2016-Aug-30 07:33N 59°20' E 018°05'0 0.0
2016-Aug-30 06:33N 59°20' E 018°05'0 0.0
2016-Aug-30 05:33N 59°20' E 018°05'0 0.0
2016-Aug-30 04:33N 59°20' E 018°05'0 0.0
2016-Aug-30 03:33N 59°20' E 018°05'0 0.0
2016-Aug-30 02:33N 59°20' E 018°05'0 0.0
2016-Aug-30 01:33N 59°20' E 018°05'0 0.0
2016-Aug-30 00:33N 59°20' E 018°05'0 0.0
2016-Aug-29 23:33N 59°20' E 018°05'0 0.0
2016-Aug-29 22:33N 59°20' E 018°05'0 0.0
2016-Aug-29 21:33N 59°20' E 018°05'0 0.0
2016-Aug-29 20:33N 59°20' E 018°05'4 3.7
2016-Aug-29 19:33N 59°20' E 018°12'6 4.4
2016-Aug-29 18:19N 59°23' E 018°21'4 5.2
2016-Aug-29 17:33N 59°21' E 018°14'5 5.1
2016-Aug-29 16:33N 59°20' E 018°05'0 0.0
2016-Aug-29 15:33N 59°20' E 018°05'0 0.0
2016-Aug-29 14:33N 59°20' E 018°05'0 0.0
2016-Aug-29 13:33N 59°20' E 018°05'0 0.0
2016-Aug-29 12:33N 59°20' E 018°05'0 0.0
2016-Aug-29 11:33N 59°20' E 018°05'0 0.0
2016-Aug-29 10:33N 59°20' E 018°05'0 0.0
2016-Aug-29 09:33N 59°20' E 018°05'0 0.0
2016-Aug-29 08:33N 59°20' E 018°05'0 0.0
2016-Aug-29 07:33N 59°20' E 018°05'0 0.0
2016-Aug-29 06:33N 59°20' E 018°05'0 0.0
2016-Aug-29 05:33N 59°20' E 018°05'0 0.0
2016-Aug-29 04:33N 59°20' E 018°05'0 0.0
2016-Aug-29 03:33N 59°20' E 018°05'0 0.0
2016-Aug-29 02:33N 59°20' E 018°05'0 0.0
2016-Aug-29 01:33N 59°20' E 018°05'0 0.0
2016-Aug-29 00:33N 59°20' E 018°05'0 0.0
2016-Aug-28 23:33N 59°20' E 018°05'0 0.0
2016-Aug-28 22:33N 59°20' E 018°05'0 0.0
2016-Aug-28 21:33N 59°20' E 018°05'0 0.0
2016-Aug-28 13:13N 59°20' E 018°05'0 0.0
2016-Aug-28 12:33N 59°20' E 018°05'0 0.0
2016-Aug-28 11:33N 59°20' E 018°05'0 0.0
2016-Aug-28 10:33N 59°20' E 018°05'0 0.0
2016-Aug-28 09:33N 59°20' E 018°05'0 0.0
2016-Aug-28 08:33N 59°20' E 018°05'0 0.0
2016-Aug-28 07:33N 59°20' E 018°05'0 0.0
2016-Aug-28 06:33N 59°20' E 018°05'0 0.0
2016-Aug-28 05:33N 59°20' E 018°05'0 0.0
2016-Aug-28 04:33N 59°20' E 018°05'0 0.0
2016-Aug-28 03:33N 59°20' E 018°05'0 0.0
2016-Aug-28 02:33N 59°20' E 018°05'0 0.0
2016-Aug-28 01:33N 59°20' E 018°05'0 0.0
2016-Aug-28 00:33N 59°20' E 018°05'0 0.0
2016-Aug-27 23:33N 59°20' E 018°05'0 0.0
2016-Aug-27 22:33N 59°20' E 018°05'0 0.0
2016-Aug-27 21:33N 59°20' E 018°05'0 0.0
2016-Aug-27 20:33N 59°20' E 018°05'0 0.0
2016-Aug-27 19:33N 59°20' E 018°05'0 0.0
2016-Aug-27 18:33N 59°20' E 018°05'2 1.6
2016-Aug-27 17:33N 59°19' E 018°08'9 6.3
2016-Aug-27 16:04N 59°14' E 018°23'5 0.6
2016-Aug-27 07:23N 59°18' E 018°16'6 7.2
2016-Aug-27 06:34N 59°19' E 018°05'0 0.2
2016-Aug-27 04:33N 59°20' E 018°05'0 0.0
2016-Aug-27 03:33N 59°20' E 018°05'0 0.0
2016-Aug-27 02:33N 59°20' E 018°05'0 0.0
2016-Aug-27 01:33N 59°20' E 018°05'0 0.0
2016-Aug-27 00:33N 59°20' E 018°05'0 0.0
2016-Aug-26 23:33N 59°20' E 018°05'0 0.0
2016-Aug-26 22:33N 59°20' E 018°05'0 0.0
2016-Aug-26 21:33N 59°20' E 018°05'0 0.0
2016-Aug-26 20:33N 59°20' E 018°05'4 4.1
2016-Aug-26 19:33N 59°20' E 018°12'0 0.2
2016-Aug-26 17:19N 59°20' E 018°13'4 5.6
2016-Aug-26 16:33N 59°20' E 018°05'0 0.1
2016-Aug-26 15:33N 59°20' E 018°05'0 0.0
2016-Aug-26 14:33N 59°20' E 018°05'0 0.0
2016-Aug-26 13:33N 59°20' E 018°05'0 0.0
2016-Aug-26 12:33N 59°20' E 018°05'0 0.0
2016-Aug-26 11:33N 59°20' E 018°05'0 0.0
2016-Aug-26 10:34N 59°20' E 018°05'0 0.0
2016-Aug-26 09:33N 59°20' E 018°05'0 0.0
2016-Aug-26 08:33N 59°20' E 018°05'0 0.0
2016-Aug-26 07:33N 59°20' E 018°05'0 0.0
2016-Aug-26 06:33N 59°20' E 018°05'0 0.0
2016-Aug-26 04:33N 59°20' E 018°05'0 0.0
2016-Aug-26 03:33N 59°20' E 018°05'0 0.0
2016-Aug-26 02:33N 59°20' E 018°05'0 0.0
2016-Aug-26 01:33N 59°20' E 018°05'0 0.0
2016-Aug-26 00:33N 59°20' E 018°05'0 0.0
2016-Aug-25 23:33N 59°20' E 018°05'0 0.0
2016-Aug-25 22:33N 59°20' E 018°05'0 0.0
2016-Aug-25 21:33N 59°20' E 018°05'0 0.0
2016-Aug-25 20:33N 59°20' E 018°05'3 3.3
2016-Aug-25 19:33N 59°20' E 018°11'6 3.9
2016-Aug-25 18:07N 59°23' E 018°20'3 4.7
2016-Aug-25 17:33N 59°21' E 018°16'6 6.0
2016-Aug-25 16:34N 59°20' E 018°05'0 0.0
2016-Aug-25 14:26N 59°20' E 018°05'0 0.0
2016-Aug-25 13:08N 59°20' E 018°05'0 0.0
2016-Aug-25 12:31N 59°20' E 018°05'0 0.0
2016-Aug-25 11:18N 59°20' E 018°05'0 0.0
2016-Aug-24 15:20N 59°20' E 018°05'0 0.0
2016-Aug-24 14:33N 59°20' E 018°05'0 0.0
2016-Aug-24 13:33N 59°20' E 018°05'0 0.0
2016-Aug-24 12:33N 59°20' E 018°05'0 0.0
2016-Aug-24 11:33N 59°20' E 018°05'0 0.0
2016-Aug-24 10:34N 59°20' E 018°05'0 0.0
2016-Aug-24 09:33N 59°20' E 018°05'0 0.0
2016-Aug-24 08:33N 59°20' E 018°05'0 0.0
2016-Aug-24 07:33N 59°20' E 018°05'0 0.0
2016-Aug-24 06:33N 59°20' E 018°05'0 0.0
2016-Aug-24 04:33N 59°20' E 018°05'0 0.0
2016-Aug-24 03:33N 59°20' E 018°05'0 0.0
2016-Aug-24 02:33N 59°20' E 018°05'0 0.0
2016-Aug-24 01:33N 59°20' E 018°05'0 0.0
2016-Aug-24 00:33N 59°20' E 018°05'0 0.0
2016-Aug-23 23:33N 59°20' E 018°05'0 0.0
2016-Aug-23 22:33N 59°20' E 018°05'0 0.0
2016-Aug-23 21:33N 59°20' E 018°05'0 0.0
2016-Aug-23 20:33N 59°20' E 018°05'3 3.4
2016-Aug-23 19:33N 59°20' E 018°11'7 6.1
2016-Aug-23 18:24N 59°24' E 018°22'4 4.9
2016-Aug-23 17:33N 59°21' E 018°16'6 6.0
2016-Aug-23 16:34N 59°20' E 018°05'0 0.0
2016-Aug-23 15:33N 59°20' E 018°05'0 0.0
2016-Aug-23 14:33N 59°20' E 018°05'0 0.0
2016-Aug-23 13:33N 59°20' E 018°05'0 0.0
2016-Aug-23 12:34N 59°20' E 018°05'0 0.0
2016-Aug-23 11:33N 59°20' E 018°05'0 0.0
2016-Aug-23 10:33N 59°20' E 018°05'0 0.0
2016-Aug-23 09:33N 59°20' E 018°05'0 0.0
2016-Aug-23 08:34N 59°20' E 018°05'0 0.0
2016-Aug-23 07:34N 59°20' E 018°05'0 0.0
2016-Aug-23 06:33N 59°20' E 018°05'0 0.0
2016-Aug-23 05:33N 59°20' E 018°05'0 0.0
2016-Aug-23 04:33N 59°20' E 018°05'0 0.0
2016-Aug-23 03:33N 59°20' E 018°05'0 0.0
2016-Aug-23 02:33N 59°20' E 018°05'0 0.0
2016-Aug-23 01:33N 59°20' E 018°05'0 0.0
2016-Aug-23 00:33N 59°20' E 018°05'0 0.0
2016-Aug-22 23:33N 59°20' E 018°05'0 0.0
2016-Aug-22 22:34N 59°20' E 018°05'0 0.0
2016-Aug-22 21:33N 59°20' E 018°05'0 0.0
2016-Aug-22 20:33N 59°20' E 018°05'3 3.4
2016-Aug-22 19:34N 59°20' E 018°11'6 4.1
2016-Aug-22 18:10N 59°23' E 018°20'3 4.8
2016-Aug-22 17:33N 59°21' E 018°15'6 5.8
2016-Aug-22 16:33N 59°20' E 018°05'0 0.0
2016-Aug-22 15:33N 59°20' E 018°05'0 0.0
2016-Aug-22 14:33N 59°20' E 018°05'0 0.0
2016-Aug-22 13:33N 59°20' E 018°05'0 0.0
2016-Aug-22 12:33N 59°20' E 018°05'0 0.0
2016-Aug-22 11:33N 59°20' E 018°05'0 0.0
2016-Aug-22 10:33N 59°20' E 018°05'0 0.0
2016-Aug-22 09:33N 59°20' E 018°05'0 0.0
2016-Aug-22 08:33N 59°20' E 018°05'0 0.0
2016-Aug-22 07:33N 59°20' E 018°05'0 0.0
2016-Aug-22 06:33N 59°20' E 018°05'0 0.0
2016-Aug-22 05:33N 59°20' E 018°05'0 0.0
2016-Aug-22 04:33N 59°20' E 018°05'0 0.0
2016-Aug-22 03:33N 59°20' E 018°05'0 0.0
2016-Aug-22 02:33N 59°20' E 018°05'0 0.0
2016-Aug-22 01:33N 59°20' E 018°05'0 0.0
2016-Aug-22 00:33N 59°20' E 018°05'0 0.0
2016-Aug-21 23:33N 59°20' E 018°05'0 0.0
2016-Aug-21 22:33N 59°20' E 018°05'0 0.0
2016-Aug-21 21:33N 59°20' E 018°05'0 0.0
2016-Aug-21 20:33N 59°20' E 018°05'0 0.0
2016-Aug-21 19:34N 59°20' E 018°05'0 0.0
2016-Aug-21 18:33N 59°20' E 018°05'2 1.7
2016-Aug-21 17:33N 59°19' E 018°08'  
Track history (hours):
 
Tides and Currents Weather Stations Pressure Air Temp Water Temp Dewpoint Dewpoint Depression Visibility Wind Speed Wind Dir Waves Ship Positions

Blidosund

Last reported at 2016-Aug-31 03:33 UTC. Time now 2016-Aug-31 04:27 UTC.
Position N 59°20' E 018°05'.

Length 35 m; draft 3 m.

Type: Passenger vessel. MMSI: 265522680.

Date/timePositionNaut miles runAvg speedWind from/ knotsBaromVisibWave heightAir tempDewpointWater temp
2016-Aug-31 03:33N 59°20' E 018°05'0 0.0
2016-Aug-31 02:33N 59°20' E 018°05'0 0.0
2016-Aug-31 01:33N 59°20' E 018°05'0 0.0
2016-Aug-31 00:33N 59°20' E 018°05'0 0.0
2016-Aug-30 23:33N 59°20' E 018°05'0 0.0
2016-Aug-30 22:33N 59°20' E 018°05'0 0.0
2016-Aug-30 21:33N 59°20' E 018°05'0 0.0
2016-Aug-30 20:33N 59°20' E 018°05'3 3.2
2016-Aug-30 19:33N 59°20' E 018°11'6 5.8
2016-Aug-30 18:31N 59°23' E 018°20'4 3.8
2016-Aug-30 17:33N 59°21' E 018°15'5 5.4
2016-Aug-30 16:33N 59°20' E 018°05'0 0.0
2016-Aug-30 15:33N 59°20' E 018°05'0 0.0
2016-Aug-30 14:33N 59°20' E 018°05'0 0.0
2016-Aug-30 13:33N 59°20' E 018°05'0 0.0
2016-Aug-30 12:27N 59°20' E 018°05'0 0.0
2016-Aug-30 11:29N 59°20' E 018°05'0 0.0
2016-Aug-30 10:34N 59°20' E 018°05'0 0.0
2016-Aug-30 09:33N 59°20' E 018°05'0 0.0
2016-Aug-30 08:33N 59°20' E 018°05'0 0.0
2016-Aug-30 07:33N 59°20' E 018°05'0 0.0
2016-Aug-30 06:33N 59°20' E 018°05'0 0.0
2016-Aug-30 05:33N 59°20' E 018°05'0 0.0
2016-Aug-30 04:33N 59°20' E 018°05'0 0.0
2016-Aug-30 03:33N 59°20' E 018°05'0 0.0
2016-Aug-30 02:33N 59°20' E 018°05'0 0.0
2016-Aug-30 01:33N 59°20' E 018°05'0 0.0
2016-Aug-30 00:33N 59°20' E 018°05'0 0.0
2016-Aug-29 23:33N 59°20' E 018°05'0 0.0
2016-Aug-29 22:33N 59°20' E 018°05'0 0.0
2016-Aug-29 21:33N 59°20' E 018°05'0 0.0
2016-Aug-29 20:33N 59°20' E 018°05'4 3.7
2016-Aug-29 19:33N 59°20' E 018°12'6 4.4
2016-Aug-29 18:19N 59°23' E 018°21'4 5.2
2016-Aug-29 17:33N 59°21' E 018°14'5 5.1
2016-Aug-29 16:33N 59°20' E 018°05'0 0.0
2016-Aug-29 15:33N 59°20' E 018°05'0 0.0
2016-Aug-29 14:33N 59°20' E 018°05'0 0.0
2016-Aug-29 13:33N 59°20' E 018°05'0 0.0
2016-Aug-29 12:33N 59°20' E 018°05'0 0.0
2016-Aug-29 11:33N 59°20' E 018°05'0 0.0
2016-Aug-29 10:33N 59°20' E 018°05'0 0.0
2016-Aug-29 09:33N 59°20' E 018°05'0 0.0
2016-Aug-29 08:33N 59°20' E 018°05'0 0.0
2016-Aug-29 07:33N 59°20' E 018°05'0 0.0
2016-Aug-29 06:33N 59°20' E 018°05'0 0.0
2016-Aug-29 05:33N 59°20' E 018°05'0 0.0
2016-Aug-29 04:33N 59°20' E 018°05'0 0.0
2016-Aug-29 03:33N 59°20' E 018°05'0 0.0
2016-Aug-29 02:33N 59°20' E 018°05'0 0.0
2016-Aug-29 01:33N 59°20' E 018°05'0 0.0
2016-Aug-29 00:33N 59°20' E 018°05'0 0.0
2016-Aug-28 23:33N 59°20' E 018°05'0 0.0
2016-Aug-28 22:33N 59°20' E 018°05'0 0.0
2016-Aug-28 21:33N 59°20' E 018°05'0 0.0
2016-Aug-28 13:13N 59°20' E 018°05'0 0.0
2016-Aug-28 12:33N 59°20' E 018°05'0 0.0
2016-Aug-28 11:33N 59°20' E 018°05'0 0.0
2016-Aug-28 10:33N 59°20' E 018°05'0 0.0
2016-Aug-28 09:33N 59°20' E 018°05'0 0.0
2016-Aug-28 08:33N 59°20' E 018°05'0 0.0
2016-Aug-28 07:33N 59°20' E 018°05'0 0.0
2016-Aug-28 06:33N 59°20' E 018°05'0 0.0
2016-Aug-28 05:33N 59°20' E 018°05'0 0.0
2016-Aug-28 04:33N 59°20' E 018°05'0 0.0
2016-Aug-28 03:33N 59°20' E 018°05'0 0.0
2016-Aug-28 02:33N 59°20' E 018°05'0 0.0
2016-Aug-28 01:33N 59°20' E 018°05'0 0.0
2016-Aug-28 00:33N 59°20' E 018°05'0 0.0
2016-Aug-27 23:33N 59°20' E 018°05'0 0.0
2016-Aug-27 22:33N 59°20' E 018°05'0 0.0
2016-Aug-27 21:33N 59°20' E 018°05'0 0.0
2016-Aug-27 20:33N 59°20' E 018°05'0 0.0
2016-Aug-27 19:33N 59°20' E 018°05'0 0.0
2016-Aug-27 18:33N 59°20' E 018°05'2 1.6
2016-Aug-27 17:33N 59°19' E 018°08'9 6.3
2016-Aug-27 16:04N 59°14' E 018°23'5 0.6
2016-Aug-27 07:23N 59°18' E 018°16'6 7.2
2016-Aug-27 06:34N 59°19' E 018°05'0 0.2
2016-Aug-27 04:33N 59°20' E 018°05'0 0.0
2016-Aug-27 03:33N 59°20' E 018°05'0 0.0
2016-Aug-27 02:33N 59°20' E 018°05'0 0.0
2016-Aug-27 01:33N 59°20' E 018°05'0 0.0
2016-Aug-27 00:33N 59°20' E 018°05'0 0.0
2016-Aug-26 23:33N 59°20' E 018°05'0 0.0
2016-Aug-26 22:33N 59°20' E 018°05'0 0.0
2016-Aug-26 21:33N 59°20' E 018°05'0 0.0
2016-Aug-26 20:33N 59°20' E 018°05'4 4.1
2016-Aug-26 19:33N 59°20' E 018°12'0 0.2
2016-Aug-26 17:19N 59°20' E 018°13'4 5.6
2016-Aug-26 16:33N 59°20' E 018°05'0 0.1
2016-Aug-26 15:33N 59°20' E 018°05'0 0.0
2016-Aug-26 14:33N 59°20' E 018°05'0 0.0
2016-Aug-26 13:33N 59°20' E 018°05'0 0.0
2016-Aug-26 12:33N 59°20' E 018°05'0 0.0
2016-Aug-26 11:33N 59°20' E 018°05'0 0.0
2016-Aug-26 10:34N 59°20' E 018°05'0 0.0
2016-Aug-26 09:33N 59°20' E 018°05'0 0.0
2016-Aug-26 08:33N 59°20' E 018°05'0 0.0
2016-Aug-26 07:33N 59°20' E 018°05'0 0.0
2016-Aug-26 06:33N 59°20' E 018°05'0 0.0
2016-Aug-26 04:33N 59°20' E 018°05'0 0.0
2016-Aug-26 03:33N 59°20' E 018°05'0 0.0
2016-Aug-26 02:33N 59°20' E 018°05'0 0.0
2016-Aug-26 01:33N 59°20' E 018°05'0 0.0
2016-Aug-26 00:33N 59°20' E 018°05'0 0.0
2016-Aug-25 23:33N 59°20' E 018°05'0 0.0
2016-Aug-25 22:33N 59°20' E 018°05'0 0.0
2016-Aug-25 21:33N 59°20' E 018°05'0 0.0
2016-Aug-25 20:33N 59°20' E 018°05'3 3.3
2016-Aug-25 19:33N 59°20' E 018°11'6 3.9
2016-Aug-25 18:07N 59°23' E 018°20'3 4.7
2016-Aug-25 17:33N 59°21' E 018°16'6 6.0
2016-Aug-25 16:34N 59°20' E 018°05'0 0.0
2016-Aug-25 14:26N 59°20' E 018°05'0 0.0
2016-Aug-25 13:08N 59°20' E 018°05'0 0.0
2016-Aug-25 12:31N 59°20' E 018°05'0 0.0
2016-Aug-25 11:18N 59°20' E 018°05'0 0.0
2016-Aug-24 15:20N 59°20' E 018°05'0 0.0
2016-Aug-24 14:33N 59°20' E 018°05'0 0.0
2016-Aug-24 13:33N 59°20' E 018°05'0 0.0
2016-Aug-24 12:33N 59°20' E 018°05'0 0.0
2016-Aug-24 11:33N 59°20' E 018°05'0 0.0
2016-Aug-24 10:34N 59°20' E 018°05'0 0.0
2016-Aug-24 09:33N 59°20' E 018°05'0 0.0
2016-Aug-24 08:33N 59°20' E 018°05'0 0.0
2016-Aug-24 07:33N 59°20' E 018°05'0 0.0
2016-Aug-24 06:33N 59°20' E 018°05'0 0.0
2016-Aug-24 04:33N 59°20' E 018°05'0 0.0
2016-Aug-24 03:33N 59°20' E 018°05'0 0.0
2016-Aug-24 02:33N 59°20' E 018°05'0 0.0
2016-Aug-24 01:33N 59°20' E 018°05'0 0.0
2016-Aug-24 00:33N 59°20' E 018°05'0 0.0
2016-Aug-23 23:33N 59°20' E 018°05'0 0.0
2016-Aug-23 22:33N 59°20' E 018°05'0 0.0
2016-Aug-23 21:33N 59°20' E 018°05'0 0.0
2016-Aug-23 20:33N 59°20' E 018°05'3 3.4
2016-Aug-23 19:33N 59°20' E 018°11'7 6.1
2016-Aug-23 18:24N 59°24' E 018°22'4 4.9
2016-Aug-23 17:33N 59°21' E 018°16'6 6.0
2016-Aug-23 16:34N 59°20' E 018°05'0 0.0
2016-Aug-23 15:33N 59°20' E 018°05'0 0.0
2016-Aug-23 14:33N 59°20' E 018°05'0 0.0
2016-Aug-23 13:33N 59°20' E 018°05'0 0.0
2016-Aug-23 12:34N 59°20' E 018°05'0 0.0
2016-Aug-23 11:33N 59°20' E 018°05'0 0.0
2016-Aug-23 10:33N 59°20' E 018°05'0 0.0
2016-Aug-23 09:33N 59°20' E 018°05'0 0.0
2016-Aug-23 08:34N 59°20' E 018°05'0 0.0
2016-Aug-23 07:34N 59°20' E 018°05'0 0.0
2016-Aug-23 06:33N 59°20' E 018°05'0 0.0
2016-Aug-23 05:33N 59°20' E 018°05'0 0.0
2016-Aug-23 04:33N 59°20' E 018°05'0 0.0
2016-Aug-23 03:33N 59°20' E 018°05'0 0.0
2016-Aug-23 02:33N 59°20' E 018°05'0 0.0
2016-Aug-23 01:33N 59°20' E 018°05'0 0.0
2016-Aug-23 00:33N 59°20' E 018°05'0 0.0
2016-Aug-22 23:33N 59°20' E 018°05'0 0.0
2016-Aug-22 22:34N 59°20' E 018°05'0 0.0
2016-Aug-22 21:33N 59°20' E 018°05'0 0.0
2016-Aug-22 20:33N 59°20' E 018°05'3 3.4
2016-Aug-22 19:34N 59°20' E 018°11'6 4.1
2016-Aug-22 18:10N 59°23' E 018°20'3 4.8
2016-Aug-22 17:33N 59°21' E 018°15'6 5.8
2016-Aug-22 16:33N 59°20' E 018°05'0 0.0
2016-Aug-22 15:33N 59°20' E 018°05'0 0.0
2016-Aug-22 14:33N 59°20' E 018°05'0 0.0
2016-Aug-22 13:33N 59°20' E 018°05'0 0.0
2016-Aug-22 12:33N 59°20' E 018°05'0 0.0
2016-Aug-22 11:33N 59°20' E 018°05'0 0.0
2016-Aug-22 10:33N 59°20' E 018°05'0 0.0
2016-Aug-22 09:33N 59°20' E 018°05'0 0.0
2016-Aug-22 08:33N 59°20' E 018°05'0 0.0
2016-Aug-22 07:33N 59°20' E 018°05'0 0.0
2016-Aug-22 06:33N 59°20' E 018°05'0 0.0
2016-Aug-22 05:33N 59°20' E 018°05'0 0.0
2016-Aug-22 04:33N 59°20' E 018°05'0 0.0
2016-Aug-22 03:33N 59°20' E 018°05'0 0.0
2016-Aug-22 02:33N 59°20' E 018°05'0 0.0
2016-Aug-22 01:33N 59°20' E 018°05'0 0.0
2016-Aug-22 00:33N 59°20' E 018°05'0 0.0
2016-Aug-21 23:33N 59°20' E 018°05'0 0.0
2016-Aug-21 22:33N 59°20' E 018°05'0 0.0
2016-Aug-21 21:33N 59°20' E 018°05'0 0.0
2016-Aug-21 20:33N 59°20' E 018°05'0 0.0
2016-Aug-21 19:34N 59°20' E 018°05'0 0.0
2016-Aug-21 18:33N 59°20' E 018°05'2 1.7
2016-Aug-21 17:33N 59°19' E 018°08'  

Dump ship's entire track history